createdAt,value
2018-09-10T00:00:55.254Z,11.28
2018-09-10T00:03:25.614Z,11.26
2018-09-10T00:05:54.891Z,11.24
2018-09-10T00:08:24.249Z,11.22
2018-09-10T00:10:54.128Z,11.19
2018-09-10T00:13:23.471Z,11.16
2018-09-10T00:15:52.799Z,11.16
2018-09-10T00:18:22.243Z,11.14
2018-09-10T00:20:51.969Z,11.14
2018-09-10T00:23:21.303Z,11.14
2018-09-10T00:25:51.162Z,11.12
2018-09-10T00:28:20.481Z,11.09
2018-09-10T00:30:49.836Z,11.05
2018-09-10T00:33:19.180Z,11.01
2018-09-10T00:35:49.159Z,10.98
2018-09-10T00:38:18.484Z,10.96
2018-09-10T00:40:47.791Z,10.98
2018-09-10T00:43:17.131Z,10.97
2018-09-10T00:45:46.948Z,10.94
2018-09-10T00:48:16.287Z,10.92
2018-09-10T00:50:45.944Z,10.91
2018-09-10T00:53:15.248Z,10.89
2018-09-10T00:55:45.195Z,10.90
2018-09-10T00:58:14.536Z,10.90
2018-09-10T01:00:44.275Z,10.90
2018-09-10T01:03:15.076Z,10.89
2018-09-10T01:05:44.452Z,10.87
2018-09-10T01:08:13.806Z,10.83
2018-09-10T01:11:13.888Z,10.80
2018-09-10T01:13:43.235Z,10.81
2018-09-10T01:16:13.035Z,10.79
2018-09-10T01:18:42.343Z,10.79
2018-09-10T01:21:11.866Z,10.78
2018-09-10T01:23:41.216Z,10.79
2018-09-10T01:26:11.120Z,10.78
2018-09-10T01:28:40.471Z,10.76
2018-09-10T01:31:09.763Z,10.71
2018-09-10T01:33:44.123Z,10.70
2018-09-10T01:36:13.500Z,10.64
2018-09-10T01:38:42.812Z,10.62
2018-09-10T01:41:12.689Z,10.62
2018-09-10T01:43:42.036Z,10.60
2018-09-10T01:46:11.868Z,10.58
2018-09-10T01:48:41.226Z,10.52
2018-09-10T01:51:11.013Z,10.42
2018-09-10T01:53:40.443Z,10.39
2018-09-10T01:56:09.789Z,10.39
2018-09-10T01:58:39.167Z,10.39
2018-09-10T02:01:08.975Z,10.42
2018-09-10T02:03:38.277Z,10.41
2018-09-10T02:06:07.918Z,10.39
2018-09-10T02:08:37.238Z,10.37
2018-09-10T02:11:07.044Z,10.37
2018-09-10T02:13:36.395Z,10.37
2018-09-10T02:16:09.027Z,10.37
2018-09-10T02:18:39.295Z,10.37
2018-09-10T02:21:08.620Z,10.36
2018-09-10T02:23:38.445Z,10.33
2018-09-10T02:26:07.940Z,10.32
2018-09-10T02:28:37.284Z,10.31
2018-09-10T02:31:06.752Z,10.30
2018-09-10T02:33:36.092Z,10.30
2018-09-10T02:36:05.793Z,10.27
2018-09-10T02:38:35.163Z,10.24
2018-09-10T02:41:04.511Z,10.23
2018-09-10T02:43:33.998Z,10.22
2018-09-10T02:46:03.817Z,10.19
2018-09-10T02:48:33.097Z,10.14
2018-09-10T02:51:02.416Z,10.12
2018-09-10T02:53:31.738Z,10.13
2018-09-10T02:56:01.528Z,10.14
2018-09-10T02:58:30.886Z,10.14
2018-09-10T03:01:00.251Z,10.13
2018-09-10T03:03:29.622Z,10.09
2018-09-10T03:05:59.447Z,10.04
2018-09-10T03:08:28.797Z,10.08
2018-09-10T03:10:58.135Z,10.13
2018-09-10T03:13:27.520Z,10.12
2018-09-10T03:15:57.107Z,10.10
2018-09-10T03:18:26.438Z,10.07
2018-09-10T03:20:58.838Z,10.04
2018-09-10T03:23:28.160Z,10.01
2018-09-10T03:25:57.519Z,9.97
2018-09-10T03:28:27.951Z,9.94
2018-09-10T03:30:58.522Z,9.92
2018-09-10T03:33:27.932Z,9.92
2018-09-10T03:35:57.307Z,9.89
2018-09-10T03:38:27.944Z,9.89
2018-09-10T03:40:57.248Z,9.90
2018-09-10T03:43:26.868Z,9.89
2018-09-10T03:45:56.189Z,9.87
2018-09-10T03:48:25.888Z,9.84
2018-09-10T03:50:55.192Z,9.80
2018-09-10T03:53:24.524Z,9.79
2018-09-10T03:55:53.856Z,9.76
2018-09-10T03:58:23.227Z,9.77
2018-09-10T04:00:52.529Z,9.74
2018-09-10T04:03:21.811Z,9.72
2018-09-10T04:05:51.406Z,9.73
2018-09-10T04:08:20.772Z,9.67
2018-09-10T04:10:50.093Z,9.62
2018-09-10T04:13:19.417Z,9.61
2018-09-10T04:15:49.440Z,9.60
2018-09-10T04:18:19.533Z,9.61
2018-09-10T04:20:49.218Z,9.64
2018-09-10T04:23:18.579Z,9.63
2018-09-10T04:25:48.027Z,9.57
2018-09-10T04:28:17.393Z,9.59
2018-09-10T04:30:47.096Z,9.58
2018-09-10T04:33:16.379Z,9.54
2018-09-10T04:35:46.416Z,9.55
2018-09-10T04:38:16.032Z,9.53
2018-09-10T04:40:46.828Z,9.55
2018-09-10T04:43:16.182Z,9.53
2018-09-10T04:45:46.092Z,9.55
2018-09-10T04:48:16.078Z,9.58
2018-09-10T04:50:45.368Z,9.68
2018-09-10T04:53:14.715Z,9.74
2018-09-10T04:55:44.112Z,9.88
2018-09-10T04:58:13.963Z,9.94
2018-09-10T05:00:43.336Z,9.99
2018-09-10T05:03:12.674Z,10.03
2018-09-10T05:05:42.654Z,10.06
2018-09-10T05:08:11.999Z,10.08
2018-09-10T05:10:41.369Z,10.09
2018-09-10T05:13:10.701Z,10.12
2018-09-10T05:15:40.495Z,10.17
2018-09-10T05:18:09.840Z,10.26
2018-09-10T05:20:39.361Z,10.33
2018-09-10T05:23:11.119Z,10.42
2018-09-10T05:25:41.792Z,10.58
2018-09-10T05:30:49.827Z,10.83
2018-09-10T05:33:19.201Z,10.90
2018-09-10T05:35:48.512Z,10.95
2018-09-10T05:38:18.290Z,11.02
2018-09-10T05:40:47.916Z,11.10
2018-09-10T05:43:18.987Z,11.22
2018-09-10T05:45:49.604Z,11.31
2018-09-10T05:48:19.346Z,11.42
2018-09-10T05:50:49.693Z,11.60
2018-09-10T05:53:19.807Z,11.78
2018-09-10T05:55:49.416Z,11.95
2018-09-10T05:58:18.840Z,12.11
2018-09-10T06:00:48.222Z,12.24
2018-09-10T06:03:19.681Z,12.40
2018-09-10T06:05:49.021Z,12.53
2018-09-10T06:11:55.812Z,12.79
2018-09-10T06:14:25.497Z,12.87
2018-09-10T06:16:55.262Z,12.96
2018-09-10T06:19:24.636Z,13.03
2018-09-10T06:21:54.253Z,13.09
2018-09-10T06:24:23.977Z,13.14
2018-09-10T06:26:53.347Z,13.20
2018-09-10T06:29:22.704Z,13.22
2018-09-10T06:31:52.710Z,13.26
2018-09-10T06:34:22.511Z,13.33
2018-09-10T06:36:51.877Z,13.46
2018-09-10T06:39:21.304Z,13.60
2018-09-10T06:41:51.673Z,13.80
2018-09-10T06:44:22.986Z,14.04
2018-09-10T06:46:52.315Z,14.28
2018-09-10T06:49:22.004Z,14.55
2018-09-10T06:51:51.355Z,14.81
2018-09-10T06:54:21.536Z,15.08
2018-09-10T06:56:50.847Z,15.37
2018-09-10T06:59:20.603Z,15.55
2018-09-10T07:01:49.937Z,15.72
2018-09-10T07:04:19.246Z,15.92
2018-09-10T07:06:48.640Z,16.18
2018-09-10T07:09:18.015Z,16.35
2018-09-10T07:11:47.376Z,16.52
2018-09-10T07:14:16.724Z,16.73
2018-09-10T07:16:46.666Z,17.04
2018-09-10T07:19:16.100Z,17.40
2018-09-10T07:21:45.451Z,17.69
2018-09-10T07:24:15.431Z,17.97
2018-09-10T07:26:44.915Z,18.16
2018-09-10T07:29:14.303Z,18.34
2018-09-10T07:31:44.057Z,18.53
2018-09-10T07:34:13.816Z,18.63
2018-09-10T07:36:43.603Z,18.65
2018-09-10T07:39:13.222Z,18.67
2018-09-10T07:41:43.539Z,18.75
2018-09-10T07:44:16.489Z,18.83
2018-09-10T07:46:46.995Z,18.92
2018-09-10T07:49:17.588Z,18.88
2018-09-10T07:51:46.970Z,18.92
2018-09-10T07:54:16.364Z,18.98
2018-09-10T07:59:22.455Z,19.04
2018-09-10T08:01:52.158Z,19.05
2018-09-10T08:04:21.480Z,19.12
2018-09-10T08:06:51.606Z,19.15
2018-09-10T08:09:21.779Z,19.24
2018-09-10T08:11:52.693Z,19.34
2018-09-10T08:14:22.210Z,19.41
2018-09-10T08:16:51.567Z,19.68
2018-09-10T08:19:21.860Z,19.84
2018-09-10T08:21:51.212Z,20.03
2018-09-10T08:24:21.276Z,20.16
2018-09-10T08:26:50.596Z,20.16
2018-09-10T08:29:20.895Z,20.25
2018-09-10T08:31:51.361Z,20.30
2018-09-10T08:34:21.239Z,20.31
2018-09-10T08:36:51.336Z,20.40
2018-09-10T08:39:20.692Z,20.44
2018-09-10T08:41:51.091Z,20.51
2018-09-10T08:44:22.006Z,20.43
2018-09-10T08:46:51.523Z,20.44
2018-09-10T08:49:21.272Z,20.38
2018-09-10T08:52:06.114Z,20.45
2018-09-10T08:54:36.390Z,20.66
2018-09-10T08:57:06.427Z,20.69
2018-09-10T08:59:35.745Z,20.74
2018-09-10T09:02:06.762Z,20.76
2018-09-10T09:04:36.370Z,20.78
2018-09-10T09:07:06.112Z,20.73
2018-09-10T09:09:35.405Z,20.81
2018-09-10T09:12:04.776Z,20.84
2018-09-10T09:14:34.529Z,20.93
2018-09-10T09:17:05.915Z,20.95
2018-09-10T09:19:35.822Z,20.99
2018-09-10T09:22:09.971Z,21.06
2018-09-10T09:24:40.230Z,21.17
2018-09-10T09:27:09.549Z,21.27
2018-09-10T09:29:40.333Z,21.36
2018-09-10T09:32:11.020Z,21.40
2018-09-10T09:34:45.413Z,21.46
2018-09-10T09:37:20.316Z,21.60
2018-09-10T09:39:56.262Z,21.49
2018-09-10T09:42:32.406Z,21.42
2018-09-10T09:45:07.126Z,21.43
2018-09-10T09:50:41.376Z,21.50
2018-09-10T09:53:10.675Z,21.50
2018-09-10T09:55:40.069Z,21.63
2018-09-10T09:58:09.401Z,21.68
2018-09-10T10:00:43.932Z,21.66
2018-09-10T10:03:17.536Z,21.65
2018-09-10T10:05:47.927Z,21.65
2018-09-10T10:08:19.018Z,21.64
2018-09-10T10:10:48.340Z,21.61
2018-09-10T10:13:17.670Z,21.64
2018-09-10T10:15:48.664Z,21.63
2018-09-10T10:18:18.399Z,21.65
2018-09-10T10:20:50.323Z,21.76
2018-09-10T10:23:20.283Z,21.74
2018-09-10T10:25:51.218Z,21.69
2018-09-10T10:28:23.036Z,21.72
2018-09-10T10:30:53.982Z,21.86
2018-09-10T10:33:23.764Z,22.01
2018-09-10T10:35:54.096Z,22.24
2018-09-10T10:38:23.935Z,22.47
2018-09-10T10:40:54.547Z,22.58
2018-09-10T10:43:23.830Z,22.58
2018-09-10T10:45:53.911Z,22.57
2018-09-10T10:48:23.314Z,22.63
2018-09-10T10:50:52.987Z,22.72
2018-09-10T10:53:22.388Z,22.88
2018-09-10T10:55:51.675Z,22.78
2018-09-10T10:58:21.336Z,22.69
2018-09-10T11:00:50.663Z,22.84
2018-09-10T11:03:20.687Z,22.95
2018-09-10T11:05:49.956Z,23.13
2018-09-10T11:08:19.308Z,23.28
2018-09-10T11:10:49.707Z,23.33
2018-09-10T11:13:19.483Z,23.30
2018-09-10T11:15:50.406Z,23.18
2018-09-10T11:18:19.797Z,23.20
2018-09-10T11:20:49.932Z,23.30
2018-09-10T11:23:21.043Z,23.47
2018-09-10T11:25:50.358Z,23.59
2018-09-10T11:28:20.044Z,23.66
2018-09-10T11:30:54.913Z,23.78
2018-09-10T11:33:30.362Z,23.78
2018-09-10T11:36:14.427Z,23.82
2018-09-10T11:38:44.276Z,23.87
2018-09-10T11:41:13.658Z,23.90
2018-09-10T11:43:46.118Z,23.92
2018-09-10T11:46:15.486Z,23.87
2018-09-10T11:48:49.172Z,23.92
2018-09-10T11:51:18.527Z,24.14
2018-09-10T11:53:48.157Z,24.33
2018-09-10T11:56:19.414Z,24.45
2018-09-10T11:58:52.916Z,24.55
2018-09-10T12:01:23.337Z,24.50
2018-09-10T12:03:54.879Z,24.57
2018-09-10T12:06:25.041Z,24.33
2018-09-10T12:08:56.268Z,24.18
2018-09-10T12:11:28.327Z,24.25
2018-09-10T12:13:58.266Z,24.15
2018-09-10T12:16:30.259Z,24.11
2018-09-10T12:18:59.714Z,24.12
2018-09-10T12:21:29.333Z,24.17
2018-09-10T12:23:59.671Z,24.28
2018-09-10T12:26:31.469Z,24.22
2018-09-10T12:29:02.983Z,24.13
2018-09-10T12:31:32.272Z,24.04
2018-09-10T12:34:02.295Z,24.02
2018-09-10T12:36:31.890Z,23.94
2018-09-10T12:39:02.402Z,23.96
2018-09-10T12:41:31.763Z,23.95
2018-09-10T12:44:02.254Z,23.99
2018-09-10T12:46:31.677Z,24.02
2018-09-10T12:49:01.439Z,24.03
2018-09-10T12:51:32.061Z,24.03
2018-09-10T12:54:02.403Z,23.93
2018-09-10T12:56:31.781Z,23.92
2018-09-10T12:59:02.615Z,24.04
2018-09-10T13:01:32.056Z,24.22
2018-09-10T13:04:01.416Z,24.35
2018-09-10T13:06:31.603Z,24.33
2018-09-10T13:09:01.024Z,24.19
2018-09-10T13:11:30.431Z,24.09
2018-09-10T13:14:01.551Z,24.11
2018-09-10T13:16:31.075Z,24.15
2018-09-10T13:19:00.456Z,24.15
2018-09-10T13:21:29.832Z,24.20
2018-09-10T13:24:02.348Z,24.24
2018-09-10T13:26:31.753Z,24.28
2018-09-10T13:29:01.135Z,24.34
2018-09-10T13:31:30.474Z,24.38
2018-09-10T13:34:01.066Z,24.32
2018-09-10T13:36:31.575Z,24.34
2018-09-10T13:39:10.947Z,24.53
2018-09-10T13:41:40.464Z,24.66
2018-09-10T13:44:09.748Z,24.80
2018-09-10T13:46:39.627Z,24.98
2018-09-10T13:49:14.296Z,25.13
2018-09-10T13:51:45.708Z,25.28
2018-09-10T13:54:15.463Z,25.24
2018-09-10T13:59:22.641Z,24.88
2018-09-10T14:02:21.557Z,24.68
2018-09-10T14:05:18.549Z,24.66
2018-09-10T14:07:53.246Z,24.62
2018-09-10T14:10:23.214Z,24.53
2018-09-10T14:12:54.219Z,24.53
2018-09-10T14:15:31.446Z,24.53
2018-09-10T14:18:01.605Z,24.68
2018-09-10T14:20:32.908Z,24.80
2018-09-10T14:23:02.646Z,24.73
2018-09-10T14:25:32.737Z,24.58
2018-09-10T14:28:03.305Z,24.57
2018-09-10T14:30:32.985Z,24.73
2018-09-10T14:33:03.310Z,24.82
2018-09-10T14:35:33.810Z,24.99
2018-09-10T14:38:06.130Z,24.91
2018-09-10T14:40:36.390Z,24.80
2018-09-10T14:43:05.821Z,24.73
2018-09-10T14:45:37.279Z,24.70
2018-09-10T14:48:07.467Z,24.68
2018-09-10T14:50:43.544Z,24.66
2018-09-10T14:53:20.082Z,24.68
2018-09-10T14:55:51.369Z,24.88
2018-09-10T14:58:20.737Z,24.98
2018-09-10T15:00:53.599Z,25.04
2018-09-10T15:03:24.775Z,25.03
2018-09-10T15:05:55.143Z,25.11
2018-09-10T15:08:25.330Z,25.21
2018-09-10T15:10:56.335Z,25.25
2018-09-10T15:13:26.019Z,25.18
2018-09-10T15:15:58.287Z,25.02
2018-09-10T15:18:29.394Z,24.98
2018-09-10T15:20:59.872Z,24.89
2018-09-10T15:23:29.270Z,24.70
2018-09-10T15:26:02.130Z,24.61
2018-09-10T15:28:32.435Z,24.49
2018-09-10T15:31:03.984Z,24.33
2018-09-10T15:33:33.958Z,24.26
2018-09-10T15:36:07.146Z,24.15
2018-09-10T15:38:37.469Z,24.03
2018-09-10T15:41:08.006Z,23.98
2018-09-10T15:43:37.350Z,23.88
2018-09-10T15:46:06.679Z,23.82
2018-09-10T15:48:36.262Z,23.74
2018-09-10T15:51:06.383Z,23.70
2018-09-10T15:53:36.503Z,23.62
2018-09-10T15:56:05.947Z,23.56
2018-09-10T15:58:36.538Z,23.51
2018-09-10T16:01:06.952Z,23.46
2018-09-10T16:03:36.498Z,23.38
2018-09-10T16:06:08.417Z,23.35
2018-09-10T16:08:38.057Z,23.29
2018-09-10T16:11:07.947Z,23.23
2018-09-10T16:13:38.703Z,23.18
2018-09-10T16:16:08.350Z,23.12
2018-09-10T16:18:39.475Z,23.08
2018-09-10T16:21:13.099Z,23.04
2018-09-10T16:23:44.891Z,23.01
2018-09-10T16:26:15.549Z,22.97
2018-09-10T16:28:47.090Z,22.93
2018-09-10T16:31:20.906Z,22.90
2018-09-10T16:33:52.527Z,22.85
2018-09-10T16:36:22.473Z,22.75
2018-09-10T16:39:13.950Z,22.67
2018-09-10T16:41:46.799Z,22.57
2018-09-10T16:44:17.487Z,22.49
2018-09-10T16:46:47.336Z,22.40
2018-09-10T16:49:17.300Z,22.34
2018-09-10T16:51:49.835Z,22.23
2018-09-10T16:54:27.462Z,22.14
2018-09-10T16:56:56.827Z,22.02
2018-09-10T16:59:27.031Z,21.93
2018-09-10T17:02:08.666Z,21.85
2018-09-10T17:04:39.320Z,21.72
2018-09-10T17:07:09.484Z,21.61
2018-09-10T17:09:39.983Z,21.50
2018-09-10T17:12:13.647Z,21.38
2018-09-10T17:14:50.012Z,21.26
2018-09-10T17:17:20.574Z,21.12
2018-09-10T17:19:53.093Z,21.00
2018-09-10T17:22:22.810Z,20.89
2018-09-10T17:24:55.627Z,20.80
2018-09-10T17:27:26.369Z,20.74
2018-09-10T17:29:56.235Z,20.65
2018-09-10T17:32:26.230Z,20.54
2018-09-10T17:34:55.862Z,20.42
2018-09-10T17:37:25.824Z,20.30
2018-09-10T17:39:56.100Z,20.21
2018-09-10T17:42:26.482Z,20.12
2018-09-10T17:44:56.225Z,20.03
2018-09-10T17:47:27.311Z,19.95
2018-09-10T17:49:57.756Z,19.88
2018-09-10T17:52:27.933Z,19.80
2018-09-10T17:54:59.285Z,19.73
2018-09-10T17:57:29.421Z,19.66
2018-09-10T17:59:59.150Z,19.57
2018-09-10T18:02:29.683Z,19.46
2018-09-10T18:05:02.282Z,19.39
2018-09-10T18:07:32.735Z,19.32
2018-09-10T18:12:47.507Z,19.16
2018-09-10T18:15:20.087Z,19.11
2018-09-10T18:17:52.049Z,19.09
2018-09-10T18:20:26.551Z,19.03
2018-09-10T18:22:58.830Z,19.00
2018-09-10T18:28:17.117Z,18.95
2018-09-10T18:30:49.727Z,18.93
2018-09-10T18:33:22.684Z,18.91
2018-09-10T18:35:56.967Z,18.90
2018-09-10T18:38:27.551Z,18.89
2018-09-10T18:40:57.027Z,18.86
2018-09-10T18:43:31.961Z,18.84
2018-09-10T18:46:05.347Z,18.81
2018-09-10T18:48:36.971Z,18.81
2018-09-10T18:51:06.806Z,18.80
2018-09-10T18:53:38.873Z,18.79
2018-09-10T18:56:10.370Z,18.76
2018-09-10T18:58:42.753Z,18.71
2018-09-10T19:01:16.892Z,18.65
2018-09-10T19:03:51.380Z,18.60
2018-09-10T19:06:23.805Z,18.55
2018-09-10T19:08:56.939Z,18.51
2018-09-10T19:11:31.898Z,18.46
2018-09-10T19:14:03.494Z,18.38
2018-09-10T19:16:34.481Z,18.32
2018-09-10T19:19:06.905Z,18.27
2018-09-10T19:21:41.856Z,18.25
2018-09-10T19:24:13.349Z,18.22
2018-09-10T19:26:49.905Z,18.19
2018-09-10T19:29:19.387Z,18.15
2018-09-10T19:31:49.660Z,18.12
2018-09-10T19:34:20.272Z,18.10
2018-09-10T19:36:50.219Z,18.08
2018-09-10T19:39:22.741Z,18.08
2018-09-10T19:41:53.708Z,18.07
2018-09-10T19:44:27.279Z,18.05
2018-09-10T19:46:59.030Z,18.05
2018-09-10T19:49:30.862Z,18.03
2018-09-10T19:52:01.452Z,18.01
2018-09-10T19:54:34.379Z,17.98
2018-09-10T19:57:07.775Z,17.98
2018-09-10T19:59:39.133Z,17.98
2018-09-10T20:02:14.404Z,18.00
2018-09-10T20:04:43.902Z,18.16
2018-09-10T20:07:19.686Z,18.23
2018-09-10T20:09:49.740Z,18.24
2018-09-10T20:12:19.092Z,18.23
2018-09-10T20:14:49.199Z,18.25
2018-09-10T20:17:21.488Z,18.30
2018-09-10T20:19:52.602Z,18.26
2018-09-10T20:24:57.304Z,18.35
2018-09-10T20:27:29.788Z,18.33
2018-09-10T20:30:00.271Z,18.29
2018-09-10T20:32:29.631Z,18.27
2018-09-10T20:35:01.394Z,18.27
2018-09-10T20:37:32.316Z,18.28
2018-09-10T20:40:02.477Z,18.33
2018-09-10T20:42:38.137Z,18.33
2018-09-10T20:45:09.355Z,18.31
2018-09-10T20:50:14.517Z,18.39
2018-09-10T20:52:43.832Z,18.53
2018-09-10T20:55:13.977Z,18.55
2018-09-10T20:57:43.651Z,18.50
2018-09-10T21:00:13.371Z,18.45
2018-09-10T21:02:45.358Z,18.42
2018-09-10T21:05:16.507Z,18.40
2018-09-10T21:07:49.396Z,18.40
2018-09-10T21:10:19.412Z,18.39
2018-09-10T21:12:49.614Z,18.37
2018-09-10T21:15:22.524Z,18.36
2018-09-10T21:17:52.180Z,18.43
2018-09-10T21:20:22.929Z,18.43
2018-09-10T21:22:55.401Z,18.43
2018-09-10T21:25:24.726Z,18.45
2018-09-10T21:27:55.386Z,18.50
2018-09-10T21:30:25.424Z,18.55
2018-09-10T21:32:55.487Z,18.60
2018-09-10T21:35:25.427Z,18.72
2018-09-10T21:37:58.010Z,18.75
2018-09-10T21:40:28.007Z,18.74
2018-09-10T21:42:57.982Z,18.90
2018-09-10T21:45:28.770Z,18.93
2018-09-10T21:47:59.227Z,18.90
2018-09-10T21:50:28.555Z,18.93
2018-09-10T21:52:59.780Z,19.01
2018-09-10T21:55:32.310Z,19.15
2018-09-10T21:58:02.651Z,19.14
2018-09-10T22:00:32.895Z,19.11
2018-09-10T22:03:02.750Z,19.04
2018-09-10T22:05:32.725Z,18.92
2018-09-10T22:08:02.084Z,18.80
2018-09-10T22:10:31.520Z,18.70
2018-09-10T22:13:01.247Z,18.62
2018-09-10T22:15:30.565Z,18.55
2018-09-10T22:18:02.519Z,18.46
2018-09-10T22:20:32.014Z,18.38
2018-09-10T22:23:03.930Z,18.32
2018-09-10T22:25:33.818Z,18.27
2018-09-10T22:28:03.635Z,18.17
2018-09-10T22:30:36.368Z,18.08
2018-09-10T22:33:07.358Z,18.04
2018-09-10T22:35:37.591Z,17.98
2018-09-10T22:38:06.978Z,17.89
2018-09-10T22:40:36.356Z,17.83
2018-09-10T22:43:06.250Z,17.79
2018-09-10T22:45:37.494Z,17.75
2018-09-10T22:48:07.484Z,17.71
2018-09-10T22:50:36.876Z,17.66
2018-09-10T22:53:06.961Z,17.63
2018-09-10T22:55:38.254Z,17.64
2018-09-10T22:58:10.331Z,17.65
2018-09-10T23:00:41.980Z,17.60
2018-09-10T23:03:14.433Z,17.57
2018-09-10T23:05:48.901Z,17.55
2018-09-10T23:08:24.466Z,17.52
2018-09-10T23:11:01.584Z,17.52
2018-09-10T23:13:39.059Z,17.51
2018-09-10T23:16:10.714Z,17.43
2018-09-10T23:18:45.330Z,17.45
2018-09-10T23:21:21.371Z,17.46
2018-09-10T23:23:53.436Z,17.49
2018-09-10T23:26:26.541Z,17.50
2018-09-10T23:28:57.691Z,17.51
2018-09-10T23:31:31.717Z,17.53
2018-09-10T23:34:03.460Z,17.48
2018-09-10T23:36:35.951Z,17.48
2018-09-10T23:39:12.775Z,17.48
2018-09-10T23:41:48.535Z,17.48
2018-09-10T23:44:18.035Z,17.43
2018-09-10T23:46:49.252Z,17.41
2018-09-10T23:49:20.280Z,17.38
2018-09-10T23:51:52.267Z,17.34
2018-09-10T23:54:22.927Z,17.30
2018-09-10T23:56:53.315Z,17.29
2018-09-10T23:59:25.310Z,17.26
